Time;durP1;ratioP1;P1;durP2;ratioP2;P2;SDS_P1;SDS_P2;PMS_P1;PMS_P2;Temp;Humidity;BMP_temperature;BMP_pressure;BME280_temperature;BME280_humidity;BME280_pressure;Samples;Min_cycle;Max_cycle;Signal;HPM_P1;HPM_P2
2023/01/25 00:00:48;;;;;;;11.43;9.88;;;4.90;99.90;;;;;;5031563;28;20223;-75
2023/01/25 00:03:14;;;;;;;11.50;10.23;;;4.90;99.90;;;;;;5014930;28;20696;-75
2023/01/25 00:05:39;;;;;;;9.83;8.03;;;4.90;99.90;;;;;;5048399;28;20215;-75
2023/01/25 00:08:05;;;;;;;10.03;8.40;;;4.80;99.90;;;;;;5050403;28;20197;-75
2023/01/25 00:10:31;;;;;;;10.30;8.23;;;4.80;99.90;;;;;;5057127;28;20284;-75
2023/01/25 00:12:56;;;;;;;8.63;7.70;;;4.90;99.90;;;;;;5051984;28;20169;-75
2023/01/25 00:15:23;;;;;;;9.73;8.00;;;4.90;99.90;;;;;;5041902;28;20634;-75
2023/01/25 00:17:49;;;;;;;8.57;7.45;;;5.00;99.90;;;;;;5013784;28;20174;-75
2023/01/25 00:20:15;;;;;;;9.13;6.70;;;5.00;99.90;;;;;;5015405;28;20204;-75
2023/01/25 00:22:40;;;;;;;10.10;8.30;;;5.00;99.90;;;;;;5033959;28;20575;-75
2023/01/25 00:25:06;;;;;;;9.10;7.40;;;5.00;99.90;;;;;;5014827;28;20221;-76
2023/01/25 00:27:32;;;;;;;11.18;8.38;;;5.00;99.90;;;;;;5014019;28;20170;-76
2023/01/25 00:29:58;;;;;;;9.77;7.70;;;5.00;99.90;;;;;;5013898;28;20693;-75
2023/01/25 00:32:32;;;;;;;11.27;8.23;;;5.00;99.90;;;;;;4997410;28;20967;-75
2023/01/25 00:34:57;;;;;;;9.13;7.97;;;5.00;99.90;;;;;;4981623;28;20166;-75
2023/01/25 00:37:38;;;;;;;9.60;7.87;;;5.10;99.90;;;;;;5013696;28;20170;-76
2023/01/25 00:40:05;;;;;;;9.55;8.05;;;5.00;99.90;;;;;;4997201;28;20620;-75
2023/01/25 00:42:30;;;;;;;12.32;9.50;;;5.10;99.90;;;;;;4997466;28;20204;-75
2023/01/25 00:44:56;;;;;;;10.13;9.03;;;5.10;99.90;;;;;;5013668;28;20178;-75
2023/01/25 00:47:22;;;;;;;15.37;11.37;;;5.00;99.90;;;;;;5035333;28;20173;-76
2023/01/25 00:49:47;;;;;;;11.20;8.10;;;4.90;99.90;;;;;;5031480;28;20209;-75
2023/01/25 00:52:14;;;;;;;9.43;8.03;;;4.90;99.90;;;;;;5031053;28;20173;-75
2023/01/25 00:54:40;;;;;;;10.35;7.45;;;4.90;99.90;;;;;;4996960;28;20177;-75
2023/01/25 00:57:06;;;;;;;8.63;7.63;;;4.90;99.90;;;;;;5031110;28;20223;-75
2023/01/25 00:59:33;;;;;;;9.68;7.82;;;4.80;99.90;;;;;;5013098;28;20201;-75
2023/01/25 01:02:00;;;;;;;12.20;9.15;;;4.90;99.90;;;;;;4996874;28;20316;-75
2023/01/25 01:04:28;;;;;;;11.95;8.60;;;4.80;99.90;;;;;;5012859;28;20200;-75
2023/01/25 01:06:54;;;;;;;10.07;8.05;;;4.70;99.90;;;;;;5030498;28;20775;-75
2023/01/25 01:09:21;;;;;;;8.53;7.27;;;4.70;99.90;;;;;;5031106;28;20285;-75
2023/01/25 01:11:47;;;;;;;11.70;8.40;;;4.60;99.90;;;;;;5013100;28;20212;-75
2023/01/25 01:14:13;;;;;;;9.07;8.17;;;4.60;99.90;;;;;;5031153;28;20189;-75
2023/01/25 01:16:39;;;;;;;9.40;7.45;;;4.60;99.90;;;;;;5030193;28;20620;-75
2023/01/25 01:19:05;;;;;;;8.65;6.35;;;4.60;99.90;;;;;;4996670;28;20509;-75
2023/01/25 01:21:31;;;;;;;8.30;7.40;;;4.60;99.90;;;;;;5012953;28;20224;-75
2023/01/25 01:23:57;;;;;;;8.63;6.23;;;4.60;99.90;;;;;;5035422;28;20174;-75
2023/01/25 01:26:23;;;;;;;6.60;5.90;;;4.60;99.90;;;;;;4996688;28;20580;-76
2023/01/25 01:28:49;;;;;;;8.60;6.43;;;4.50;99.90;;;;;;5012989;28;20209;-75
2023/01/25 01:31:21;;;;;;;8.30;7.15;;;4.50;99.90;;;;;;4996160;28;20956;-75
2023/01/25 01:34:13;;;;;;;10.27;8.90;;;4.50;99.90;;;;;;5012807;28;20491;-75
2023/01/25 01:36:39;;;;;;;9.65;8.10;;;4.50;99.90;;;;;;5030442;28;20173;-75
2023/01/25 01:39:05;;;;;;;11.50;8.50;;;4.40;99.90;;;;;;5012671;28;20686;-75
2023/01/25 01:41:30;;;;;;;8.87;7.50;;;4.30;99.90;;;;;;4995949;28;20211;-75
2023/01/25 01:43:57;;;;;;;7.07;6.05;;;4.20;99.90;;;;;;5012671;28;20208;-75
2023/01/25 01:46:36;;;;;;;7.47;6.17;;;4.20;99.90;;;;;;5012746;28;20169;-76
2023/01/25 01:49:11;;;;;;;6.63;5.45;;;4.30;99.90;;;;;;5012897;28;20252;-75
2023/01/25 01:51:56;;;;;;;6.75;5.50;;;4.40;99.90;;;;;;5030548;28;20253;-75
2023/01/25 01:54:30;;;;;;;11.82;8.82;;;4.40;99.90;;;;;;4996494;28;20253;-76
2023/01/25 01:57:06;;;;;;;8.60;7.43;;;4.40;99.90;;;;;;5012329;28;20173;-75
2023/01/25 01:59:58;;;;;;;7.97;7.13;;;4.40;99.90;;;;;;5012921;28;20201;-75
2023/01/25 02:02:25;;;;;;;7.05;5.78;;;4.40;99.90;;;;;;5032686;28;20193;-76
2023/01/25 02:05:03;;;;;;;7.90;6.40;;;4.50;99.90;;;;;;5030805;28;20221;-75
2023/01/25 02:07:32;;;;;;;7.63;6.78;;;4.50;99.90;;;;;;5011681;28;20182;-75
2023/01/25 02:09:59;;;;;;;8.43;6.60;;;4.60;99.90;;;;;;5029664;28;20214;-76
2023/01/25 02:12:26;;;;;;;7.82;6.38;;;4.60;99.90;;;;;;5011740;28;20733;-75
2023/01/25 02:14:53;;;;;;;8.00;7.10;;;4.50;99.90;;;;;;5012270;28;20649;-75
2023/01/25 02:17:30;;;;;;;11.05;8.80;;;4.50;99.90;;;;;;5011533;28;20166;-75
2023/01/25 02:20:16;;;;;;;8.90;7.10;;;4.40;99.90;;;;;;5029147;28;20226;-75
2023/01/25 02:22:53;;;;;;;8.20;6.50;;;4.40;99.90;;;;;;5011228;28;20177;-74
2023/01/25 02:25:19;;;;;;;7.45;6.38;;;4.40;99.90;;;;;;5030071;28;20180;-75
2023/01/25 02:27:52;;;;;;;6.57;5.40;;;4.40;99.90;;;;;;5011159;28;20177;-74
2023/01/25 02:30:19;;;;;;;8.18;5.85;;;4.40;99.90;;;;;;5027932;28;20215;-75
2023/01/25 02:32:44;;;;;;;8.00;6.80;;;4.50;99.90;;;;;;5029432;28;20161;-75
2023/01/25 02:35:47;;;;;;;9.77;7.57;;;4.50;99.90;;;;;;5011859;28;20161;-75
2023/01/25 02:38:17;;;;;;;10.05;7.35;;;4.40;99.90;;;;;;4973791;28;20181;-75
2023/01/25 02:40:54;;;;;;;10.05;7.72;;;4.40;99.90;;;;;;5028740;28;20204;-75
2023/01/25 02:43:23;;;;;;;10.32;7.18;;;4.40;99.90;;;;;;5011570;28;20169;-75
2023/01/25 02:45:55;;;;;;;9.75;7.00;;;4.40;99.90;;;;;;5027999;28;20174;-75
2023/01/25 02:48:21;;;;;;;8.82;6.80;;;4.40;99.90;;;;;;5027865;28;20206;-75
2023/01/25 02:50:48;;;;;;;10.25;6.22;;;4.40;99.90;;;;;;5028323;28;20256;-75
2023/01/25 02:53:14;;;;;;;12.80;9.70;;;4.40;99.90;;;;;;5028011;28;20728;-76
2023/01/25 02:55:39;;;;;;;10.90;8.30;;;4.40;99.90;;;;;;4995144;28;21229;-76
2023/01/25 02:58:07;;;;;;;9.10;8.02;;;4.40;99.90;;;;;;5011431;28;20231;-76
2023/01/25 03:00:33;;;;;;;9.77;7.28;;;4.40;99.90;;;;;;5011219;28;20208;-75
2023/01/25 03:02:59;;;;;;;10.47;7.80;;;4.40;99.90;;;;;;5027932;28;20581;-76
2023/01/25 03:05:25;;;;;;;7.97;7.00;;;4.30;99.90;;;;;;5028009;28;20224;-76
2023/01/25 03:07:51;;;;;;;13.25;10.15;;;4.30;99.90;;;;;;5027371;28;20177;-76
2023/01/25 03:10:17;;;;;;;8.87;6.97;;;4.30;99.90;;;;;;5028781;28;20603;-76
2023/01/25 03:12:44;;;;;;;7.72;6.97;;;4.30;99.90;;;;;;5011078;28;20224;-76
2023/01/25 03:15:10;;;;;;;10.50;9.27;;;4.30;99.90;;;;;;5031768;28;20191;-75
2023/01/25 03:17:36;;;;;;;12.18;9.38;;;4.30;99.90;;;;;;5028251;28;20584;-76
2023/01/25 03:20:02;;;;;;;9.03;7.67;;;4.20;99.90;;;;;;5011159;28;20791;-75
2023/01/25 03:22:32;;;;;;;10.45;8.70;;;4.20;99.90;;;;;;5027182;28;20621;-75
2023/01/25 03:24:58;;;;;;;9.88;7.72;;;4.20;99.90;;;;;;5028770;28;20173;-75
2023/01/25 03:27:25;;;;;;;9.02;7.38;;;4.20;99.90;;;;;;4994620;28;20176;-76
2023/01/25 03:30:00;;;;;;;11.13;8.68;;;4.20;99.90;;;;;;5027661;28;20295;-75
2023/01/25 03:32:30;;;;;;;10.80;8.93;;;4.30;99.90;;;;;;5010759;28;20174;-75
2023/01/25 03:35:01;;;;;;;8.65;7.78;;;4.30;99.90;;;;;;5027501;28;20682;-75
2023/01/25 03:37:30;;;;;;;10.60;8.75;;;4.30;99.90;;;;;;5010673;28;20715;-75
2023/01/25 03:39:57;;;;;;;9.95;8.18;;;4.40;99.90;;;;;;5027341;28;20204;-75
2023/01/25 03:42:23;;;;;;;10.50;7.80;;;4.40;99.90;;;;;;5013557;28;20174;-75
2023/01/25 03:44:54;;;;;;;9.25;7.78;;;4.40;99.90;;;;;;5013461;28;20219;-76
2023/01/25 03:47:20;;;;;;;9.23;8.00;;;4.40;99.90;;;;;;5009771;28;20794;-76
2023/01/25 03:49:46;;;;;;;9.27;7.50;;;4.50;99.90;;;;;;5011716;28;20666;-76
2023/01/25 03:52:15;;;;;;;9.38;8.25;;;4.50;99.90;;;;;;5008807;28;20687;-76
2023/01/25 03:54:41;;;;;;;9.65;7.88;;;4.50;99.90;;;;;;5011331;28;20184;-76
2023/01/25 03:57:08;;;;;;;10.70;8.00;;;4.60;99.90;;;;;;5034133;28;20260;-76
2023/01/25 03:59:43;;;;;;;10.90;8.07;;;4.60;99.90;;;;;;5017673;28;20197;-75
2023/01/25 04:02:09;;;;;;;7.90;6.90;;;4.50;99.90;;;;;;5017274;28;20169;-75
2023/01/25 04:04:35;;;;;;;9.80;7.65;;;4.50;99.90;;;;;;5034342;28;20170;-76
2023/01/25 04:07:02;;;;;;;9.43;7.32;;;4.50;99.90;;;;;;5033438;28;20583;-76
2023/01/25 04:09:28;;;;;;;9.18;7.57;;;4.50;99.90;;;;;;5033838;28;20700;-76
2023/01/25 04:11:56;;;;;;;10.65;8.35;;;4.50;99.90;;;;;;5017063;28;20169;-76
2023/01/25 04:14:22;;;;;;;9.03;7.40;;;4.50;99.90;;;;;;5034402;28;20165;-76
2023/01/25 04:16:57;;;;;;;10.95;7.40;;;4.40;99.90;;;;;;5017004;28;20173;-76
2023/01/25 04:19:36;;;;;;;9.60;7.85;;;4.40;99.90;;;;;;5017498;28;20200;-76
2023/01/25 04:22:03;;;;;;;11.57;8.05;;;4.50;99.90;;;;;;5033450;28;20624;-76
2023/01/25 04:24:35;;;;;;;12.65;9.23;;;4.50;99.90;;;;;;5034133;28;20169;-76
2023/01/25 04:27:02;;;;;;;9.43;7.55;;;4.40;99.90;;;;;;5016781;28;20204;-76
2023/01/25 04:33:20;;;;;;;8.75;6.45;;;4.30;99.90;;;;;;4971355;28;20200;-76
2023/01/25 04:35:46;;;;;;;8.93;7.15;;;4.30;99.90;;;;;;4997540;28;20166;-75
2023/01/25 04:38:14;;;;;;;8.43;6.63;;;4.30;99.90;;;;;;4997452;28;20181;-75
2023/01/25 04:40:43;;;;;;;8.32;7.40;;;4.30;99.90;;;;;;4996908;28;20243;-75
2023/01/25 04:43:13;;;;;;;9.68;7.72;;;4.30;99.90;;;;;;5013638;28;20208;-76
2023/01/25 04:45:39;;;;;;;9.40;8.20;;;4.40;99.90;;;;;;5031375;28;20193;-75
2023/01/25 04:48:12;;;;;;;12.43;8.48;;;4.40;99.90;;;;;;4982012;28;20174;-75
2023/01/25 04:50:45;;;;;;;8.02;7.13;;;4.40;99.90;;;;;;4981054;28;20285;-76
2023/01/25 04:53:12;;;;;;;10.60;6.82;;;4.30;99.90;;;;;;4996041;28;20174;-75
2023/01/25 04:55:43;;;;;;;10.73;7.72;;;4.30;99.90;;;;;;5013432;28;20205;-75
2023/01/25 04:58:09;;;;;;;9.10;7.10;;;4.30;99.90;;;;;;5013875;28;20169;-75
2023/01/25 05:00:35;;;;;;;8.48;6.78;;;4.30;99.90;;;;;;5012644;28;20276;-75
2023/01/25 05:03:02;;;;;;;8.23;7.03;;;4.30;99.90;;;;;;5012411;28;20181;-76
2023/01/25 05:05:28;;;;;;;9.57;7.75;;;4.40;99.90;;;;;;4997476;28;20208;-76
2023/01/25 05:07:54;;;;;;;10.50;7.45;;;4.30;99.90;;;;;;5018566;28;20174;-75
2023/01/25 05:10:20;;;;;;;8.50;7.27;;;4.40;99.90;;;;;;5013149;28;20201;-76
2023/01/25 05:13:09;;;;;;;6.78;6.10;;;4.40;99.90;;;;;;5020214;28;20662;-76
2023/01/25 05:15:35;;;;;;;10.03;7.23;;;4.50;99.90;;;;;;4998847;28;21000;-76
2023/01/25 05:18:02;;;;;;;10.52;7.65;;;4.50;99.90;;;;;;5013822;28;20638;-75
2023/01/25 05:20:28;;;;;;;9.73;7.95;;;4.60;99.90;;;;;;4996609;28;20198;-76
2023/01/25 05:22:54;;;;;;;12.13;9.50;;;4.60;99.90;;;;;;4996185;28;20169;-76
2023/01/25 05:28:06;;;;;;;9.00;8.00;;;4.70;99.90;;;;;;4996406;28;20170;-75
2023/01/25 05:30:51;;;;;;;11.18;8.57;;;4.70;99.90;;;;;;4995878;28;20289;-76
2023/01/25 05:33:23;;;;;;;11.57;8.35;;;4.70;99.90;;;;;;4980573;28;20265;-76
2023/01/25 05:35:49;;;;;;;9.20;8.17;;;4.70;99.90;;;;;;5034288;28;20277;-76
2023/01/25 05:38:15;;;;;;;10.48;7.80;;;4.70;99.90;;;;;;5018415;28;20587;-76
2023/01/25 05:40:41;;;;;;;12.70;9.18;;;4.80;99.90;;;;;;5001144;28;20658;-76
2023/01/25 05:43:07;;;;;;;12.33;9.60;;;4.80;99.90;;;;;;5014259;28;20205;-77
2023/01/25 05:45:33;;;;;;;11.93;9.70;;;4.80;99.90;;;;;;5002651;28;20174;-76
2023/01/25 05:48:00;;;;;;;11.88;9.75;;;4.90;99.90;;;;;;5015578;28;20983;-76
2023/01/25 05:50:26;;;;;;;11.30;8.60;;;4.90;99.90;;;;;;5014590;28;20662;-76
2023/01/25 05:52:58;;;;;;;12.38;9.00;;;4.90;99.90;;;;;;5016185;28;20174;-76
2023/01/25 05:55:25;;;;;;;13.15;9.95;;;4.90;99.90;;;;;;5004944;28;20192;-76
2023/01/25 05:57:55;;;;;;;12.85;9.85;;;4.80;99.90;;;;;;5031226;28;20166;-78
2023/01/25 06:00:22;;;;;;;9.95;8.48;;;4.90;99.90;;;;;;5012308;28;20189;-78
2023/01/25 06:02:47;;;;;;;10.30;8.97;;;4.90;99.90;;;;;;5001137;28;20227;-77
2023/01/25 06:05:17;;;;;;;13.48;10.90;;;4.90;99.90;;;;;;5000801;28;21311;-77
2023/01/25 06:07:43;;;;;;;10.63;8.30;;;4.80;99.90;;;;;;5001299;28;20638;-77
2023/01/25 06:10:10;;;;;;;12.48;9.25;;;4.80;99.90;;;;;;5017218;28;20235;-77
2023/01/25 06:12:36;;;;;;;10.43;9.32;;;4.90;99.90;;;;;;5016406;28;20169;-77
2023/01/25 06:15:02;;;;;;;10.10;9.10;;;4.80;99.90;;;;;;5035544;28;20220;-77
2023/01/25 06:17:27;;;;;;;9.50;7.60;;;4.90;99.90;;;;;;5021831;28;20204;-77
2023/01/25 06:19:58;;;;;;;13.05;9.38;;;4.90;99.90;;;;;;5023127;28;20635;-78
2023/01/25 06:22:42;;;;;;;11.82;9.63;;;4.90;99.90;;;;;;5049771;28;20166;-77
2023/01/25 06:25:08;;;;;;;11.07;9.30;;;4.80;99.90;;;;;;5038759;28;20180;-77
2023/01/25 06:27:33;;;;;;;12.67;10.17;;;4.80;99.90;;;;;;5044588;28;20177;-77
2023/01/25 06:29:59;;;;;;;10.33;9.20;;;4.70;99.90;;;;;;5040816;28;20213;-78
2023/01/25 06:32:30;;;;;;;11.50;8.07;;;4.70;99.90;;;;;;5019377;28;20252;-78
2023/01/25 06:34:55;;;;;;;9.75;8.00;;;4.70;99.90;;;;;;5055019;28;20154;-77
2023/01/25 06:37:23;;;;;;;10.18;8.50;;;4.70;99.90;;;;;;5047056;28;20199;-77
2023/01/25 06:39:49;;;;;;;8.47;6.50;;;4.70;99.90;;;;;;5062807;28;20236;-76
2023/01/25 06:42:15;;;;;;;11.17;9.10;;;4.70;99.90;;;;;;5022358;28;20241;-77
2023/01/25 06:44:40;;;;;;;9.87;7.77;;;4.70;99.90;;;;;;5064249;28;20241;-77
2023/01/25 06:47:08;;;;;;;11.02;8.00;;;4.70;99.90;;;;;;5028312;28;20195;-77
2023/01/25 06:49:34;;;;;;;8.88;7.10;;;4.70;99.90;;;;;;5060348;28;20654;-77
2023/01/25 06:52:01;;;;;;;12.27;9.00;;;4.80;99.90;;;;;;5020332;28;20169;-77
2023/01/25 06:54:27;;;;;;;11.82;9.95;;;4.70;99.90;;;;;;5055482;28;20182;-77
2023/01/25 06:56:52;;;;;;;11.20;8.70;;;4.80;99.90;;;;;;5056892;28;20304;-77
2023/01/25 06:59:18;;;;;;;10.20;7.90;;;4.80;99.90;;;;;;5045032;28;20584;-76
2023/01/25 07:01:46;;;;;;;10.67;8.37;;;4.80;99.90;;;;;;5026717;28;20180;-76
2023/01/25 07:04:12;;;;;;;11.05;7.82;;;4.80;99.90;;;;;;5031753;28;20180;-76
2023/01/25 07:06:38;;;;;;;10.40;8.80;;;4.80;99.90;;;;;;5035181;28;20659;-76
2023/01/25 07:09:11;;;;;;;11.93;8.60;;;4.80;99.90;;;;;;5034431;28;20227;-76
2023/01/25 07:11:37;;;;;;;11.63;8.65;;;4.80;99.90;;;;;;5003615;28;20181;-77
2023/01/25 07:14:04;;;;;;;11.48;9.07;;;4.80;99.90;;;;;;5011556;28;20180;-77
2023/01/25 07:16:35;;;;;;;12.73;9.05;;;4.80;99.90;;;;;;5013283;28;20897;-76
2023/01/25 07:19:05;;;;;;;11.80;10.07;;;4.80;99.90;;;;;;5015250;28;20216;-76
2023/01/25 07:21:31;;;;;;;11.55;9.57;;;4.80;99.90;;;;;;5014339;28;20696;-76
2023/01/25 07:24:02;;;;;;;12.38;9.43;;;4.90;99.90;;;;;;4999914;28;20288;-76
2023/01/25 07:26:28;;;;;;;10.38;9.32;;;4.80;99.90;;;;;;5036271;28;20605;-76
2023/01/25 07:28:56;;;;;;;13.87;10.00;;;4.80;99.90;;;;;;5001017;28;20246;-77
2023/01/25 07:31:22;;;;;;;10.40;8.82;;;4.80;99.90;;;;;;5016176;28;20608;-76
2023/01/25 07:33:54;;;;;;;11.93;10.00;;;4.80;99.90;;;;;;5017997;28;20696;-77
2023/01/25 07:36:21;;;;;;;14.75;10.10;;;4.80;99.90;;;;;;5037927;28;20166;-76
2023/01/25 07:38:47;;;;;;;10.43;8.57;;;4.80;99.90;;;;;;5018202;28;20263;-77
2023/01/25 07:41:15;;;;;;;12.63;8.73;;;4.80;99.90;;;;;;5017151;28;20197;-77
2023/01/25 07:43:41;;;;;;;13.23;9.85;;;4.70;99.90;;;;;;5021019;28;20260;-77
2023/01/25 07:46:11;;;;;;;12.40;9.73;;;4.70;99.90;;;;;;5007684;28;20256;-77
2023/01/25 07:48:38;;;;;;;10.52;9.20;;;4.60;99.90;;;;;;5034272;28;20346;-76
2023/01/25 07:51:21;;;;;;;12.30;9.90;;;4.60;99.90;;;;;;5021742;28;20181;-79
2023/01/25 07:53:49;;;;;;;11.45;9.85;;;4.60;99.90;;;;;;5034959;28;20195;-78
2023/01/25 07:56:15;;;;;;;13.93;10.32;;;4.50;99.90;;;;;;5034636;28;20177;-78
2023/01/25 07:58:40;;;;;;;11.17;9.90;;;4.60;99.90;;;;;;5035620;28;20256;-78
2023/01/25 08:01:07;;;;;;;12.50;10.23;;;4.60;99.90;;;;;;5052907;28;20669;-77
2023/01/25 08:03:34;;;;;;;12.85;10.82;;;4.60;99.90;;;;;;5019197;28;20184;-76
2023/01/25 08:06:00;;;;;;;14.60;10.03;;;4.60;99.90;;;;;;5052332;28;20166;-76
2023/01/25 08:08:26;;;;;;;15.30;11.57;;;4.60;99.90;;;;;;5017566;28;20653;-76
2023/01/25 08:10:52;;;;;;;13.97;12.50;;;4.60;99.90;;;;;;5032870;28;20284;-76
2023/01/25 08:13:18;;;;;;;13.80;11.37;;;4.60;99.90;;;;;;5035368;28;20180;-77
2023/01/25 08:15:52;;;;;;;16.37;11.60;;;4.60;99.90;;;;;;5053546;28;20937;-77
2023/01/25 08:18:18;;;;;;;12.70;10.25;;;4.50;99.90;;;;;;5034336;28;20587;-76
2023/01/25 08:20:44;;;;;;;12.10;9.57;;;4.50;99.90;;;;;;5017870;28;20189;-76
2023/01/25 08:23:09;;;;;;;16.30;12.70;;;4.50;99.90;;;;;;5033441;28;20712;-76
2023/01/25 08:25:35;;;;;;;14.67;11.50;;;4.50;99.90;;;;;;5016413;28;20588;-77
2023/01/25 08:28:00;;;;;;;12.53;10.30;;;4.50;99.90;;;;;;5030658;28;20263;-77
2023/01/25 08:30:26;;;;;;;12.38;10.50;;;4.50;99.90;;;;;;5013555;28;20330;-77
2023/01/25 08:32:53;;;;;;;11.17;9.97;;;4.50;99.90;;;;;;5031594;28;20173;-77
2023/01/25 08:35:18;;;;;;;11.90;10.40;;;4.50;99.90;;;;;;4997318;28;20251;-79
2023/01/25 08:37:44;;;;;;;13.57;10.33;;;4.50;99.90;;;;;;5031848;28;20208;-78
2023/01/25 08:40:12;;;;;;;16.10;10.57;;;4.60;99.90;;;;;;5012962;28;20209;-79
2023/01/25 08:42:38;;;;;;;12.95;10.63;;;4.70;99.90;;;;;;4997371;28;20622;-77
2023/01/25 08:45:04;;;;;;;14.80;11.50;;;4.70;99.90;;;;;;5025746;28;20183;-76
2023/01/25 08:47:30;;;;;;;14.20;11.20;;;4.80;99.90;;;;;;5025328;28;20177;-76
2023/01/25 08:49:56;;;;;;;12.73;11.30;;;4.80;99.90;;;;;;5029928;28;20267;-76
2023/01/25 08:52:22;;;;;;;12.70;11.03;;;4.90;99.90;;;;;;5037623;28;20712;-77
2023/01/25 08:54:47;;;;;;;14.53;12.57;;;4.90;99.90;;;;;;5007294;28;20231;-76
2023/01/25 08:57:13;;;;;;;13.80;11.20;;;4.90;99.90;;;;;;5006589;28;20182;-76
2023/01/25 08:59:39;;;;;;;15.00;11.50;;;5.00;99.90;;;;;;5021922;28;20185;-76
2023/01/25 09:02:04;;;;;;;16.03;12.60;;;5.00;99.90;;;;;;4997707;28;20181;-77
2023/01/25 09:04:30;;;;;;;15.90;12.30;;;5.10;99.90;;;;;;5006529;28;20182;-77
2023/01/25 09:06:56;;;;;;;16.00;12.85;;;5.10;99.90;;;;;;5008770;28;20177;-78
2023/01/25 09:09:23;;;;;;;20.13;16.20;;;5.10;99.90;;;;;;5050510;28;20251;-78
2023/01/25 09:11:49;;;;;;;17.48;13.27;;;5.10;99.90;;;;;;5032555;28;21146;-78
2023/01/25 09:14:15;;;;;;;15.63;14.00;;;5.10;99.90;;;;;;5016553;28;20245;-77
2023/01/25 09:16:41;;;;;;;17.40;13.73;;;5.10;99.90;;;;;;5016796;28;21158;-78
2023/01/25 09:19:06;;;;;;;15.83;12.60;;;5.10;99.90;;;;;;5050867;28;20573;-78
2023/01/25 09:21:33;;;;;;;19.13;13.83;;;5.10;99.90;;;;;;5050814;28;20184;-79
2023/01/25 09:23:59;;;;;;;20.60;14.73;;;5.10;99.90;;;;;;5029951;28;20201;-79
2023/01/25 09:26:25;;;;;;;17.48;14.40;;;5.10;99.90;;;;;;5030479;28;20658;-78
2023/01/25 09:28:52;;;;;;;18.77;15.10;;;5.10;99.90;;;;;;5022220;28;20229;-78
2023/01/25 09:31:19;;;;;;;17.48;15.23;;;5.10;99.90;;;;;;5012350;28;20802;-78
2023/01/25 09:34:05;;;;;;;19.90;15.68;;;5.00;99.90;;;;;;5002788;28;20280;-77
2023/01/25 09:36:31;;;;;;;18.17;14.00;;;5.10;99.90;;;;;;5034054;28;20268;-79
2023/01/25 09:38:56;;;;;;;19.07;14.20;;;5.00;99.90;;;;;;5025610;28;20173;-80
2023/01/25 09:41:47;;;;;;;17.67;14.40;;;5.10;99.90;;;;;;4996593;28;20868;-81
2023/01/25 09:44:37;;;;;;;19.45;14.90;;;5.10;99.90;;;;;;5027040;28;20177;-81
2023/01/25 09:47:19;;;;;;;18.85;13.82;;;5.10;99.90;;;;;;5031915;28;20719;-81
2023/01/25 09:49:54;;;;;;;17.02;13.55;;;5.10;99.90;;;;;;4996246;28;20292;-81
2023/01/25 09:52:52;;;;;;;16.77;12.93;;;5.10;99.90;;;;;;5016456;28;20212;-81
2023/01/25 09:55:21;;;;;;;17.83;12.35;;;5.10;99.90;;;;;;5020783;28;20165;-80
2023/01/25 09:57:52;;;;;;;18.25;15.38;;;5.10;99.90;;;;;;5012816;28;20181;-80
2023/01/25 10:00:30;;;;;;;16.48;12.75;;;5.10;99.90;;;;;;5028214;28;20198;-81
2023/01/25 10:03:11;;;;;;;16.98;14.00;;;5.10;99.90;;;;;;5029034;28;20212;-81
2023/01/25 10:05:44;;;;;;;16.45;13.23;;;5.10;99.90;;;;;;5020860;28;20814;-80
2023/01/25 10:08:19;;;;;;;18.67;13.10;;;5.10;99.90;;;;;;4995785;28;20557;-81
2023/01/25 10:10:47;;;;;;;17.05;13.68;;;5.10;99.90;;;;;;5029160;28;20235;-81
2023/01/25 10:13:17;;;;;;;19.27;13.98;;;5.10;99.90;;;;;;5012171;28;20177;-80
2023/01/25 10:15:53;;;;;;;17.92;13.43;;;5.10;99.90;;;;;;5011621;28;20170;-80
2023/01/25 10:18:39;;;;;;;17.55;13.35;;;5.10;99.90;;;;;;5012725;28;20554;-81
2023/01/25 10:21:19;;;;;;;18.77;14.65;;;5.10;99.90;;;;;;5012550;28;20232;-81
2023/01/25 10:24:21;;;;;;;19.55;15.25;;;5.10;99.90;;;;;;5031747;28;20566;-82
2023/01/25 10:27:01;;;;;;;18.98;14.70;;;5.10;99.90;;;;;;5030240;28;20162;-81
2023/01/25 10:29:32;;;;;;;16.48;12.93;;;5.20;99.90;;;;;;5012273;28;20209;-80
2023/01/25 10:32:17;;;;;;;17.83;13.30;;;5.10;99.90;;;;;;5029142;28;20552;-82
2023/01/25 10:34:49;;;;;;;18.77;14.00;;;5.10;99.90;;;;;;5011748;28;20544;-80
2023/01/25 10:37:26;;;;;;;16.60;12.88;;;5.10;99.90;;;;;;5011861;28;20295;-80
2023/01/25 10:40:11;;;;;;;17.80;13.63;;;5.20;99.90;;;;;;5027306;28;20204;-79
2023/01/25 10:42:43;;;;;;;19.77;14.40;;;5.10;99.90;;;;;;5035685;28;20542;-80
2023/01/25 10:45:13;;;;;;;18.70;13.85;;;5.20;99.90;;;;;;5049122;28;20177;-80
2023/01/25 10:47:49;;;;;;;20.45;13.98;;;5.20;99.90;;;;;;5031535;28;20176;-80
2023/01/25 10:50:46;;;;;;;16.50;12.60;;;5.20;99.90;;;;;;5030591;28;20282;-81
2023/01/25 10:53:23;;;;;;;16.42;13.60;;;5.20;99.90;;;;;;5019029;28;20212;-80
2023/01/25 10:56:00;;;;;;;18.85;14.52;;;5.20;99.90;;;;;;5048898;28;20177;-80
2023/01/25 10:58:31;;;;;;;23.55;16.83;;;5.20;99.90;;;;;;5014864;28;20649;-79
2023/01/25 11:00:57;;;;;;;20.30;15.30;;;5.30;99.90;;;;;;5013766;28;20250;-79
2023/01/25 11:03:22;;;;;;;20.30;16.20;;;5.20;99.90;;;;;;5031112;28;20173;-79
2023/01/25 11:05:56;;;;;;;19.80;14.30;;;5.30;99.90;;;;;;5031358;28;20560;-79
2023/01/25 11:08:32;;;;;;;24.90;17.52;;;5.30;99.90;;;;;;5048827;28;20263;-79
2023/01/25 11:10:59;;;;;;;17.38;12.95;;;5.30;99.90;;;;;;5038768;28;20775;-79
2023/01/25 11:13:32;;;;;;;19.83;15.10;;;5.30;99.90;;;;;;5028619;28;20172;-79
2023/01/25 11:16:00;;;;;;;15.63;12.98;;;5.30;99.90;;;;;;4995943;28;20177;-79
2023/01/25 11:18:32;;;;;;;20.15;14.95;;;5.30;99.90;;;;;;5031193;28;20170;-79
2023/01/25 11:21:18;;;;;;;18.83;15.27;;;5.40;99.90;;;;;;5011009;28;20197;-79
2023/01/25 11:23:57;;;;;;;20.13;16.38;;;5.30;99.90;;;;;;5011086;28;20173;-79
2023/01/25 11:26:22;;;;;;;22.33;15.95;;;5.30;99.90;;;;;;5028962;28;20251;-79
2023/01/25 11:28:48;;;;;;;18.40;14.07;;;5.30;99.90;;;;;;5028741;28;20642;-79
2023/01/25 11:31:23;;;;;;;18.60;15.40;;;5.30;99.90;;;;;;5027889;28;20181;-79
2023/01/25 11:33:49;;;;;;;24.20;14.30;;;5.30;99.90;;;;;;5028451;28;20173;-80
2023/01/25 11:36:36;;;;;;;20.03;14.73;;;5.30;99.90;;;;;;5008493;28;20236;-79
2023/01/25 11:39:17;;;;;;;18.85;14.48;;;5.30;99.90;;;;;;4994755;28;20616;-79
2023/01/25 11:42:07;;;;;;;19.73;15.25;;;5.30;99.90;;;;;;5003615;28;20188;-79
2023/01/25 11:44:42;;;;;;;19.45;14.05;;;5.30;99.90;;;;;;5021462;28;20272;-80
2023/01/25 11:47:32;;;;;;;18.75;13.98;;;5.30;99.90;;;;;;5028103;28;20529;-80
2023/01/25 11:50:22;;;;;;;20.05;13.30;;;5.30;99.90;;;;;;5013533;28;20255;-80
2023/01/25 11:53:20;;;;;;;14.88;12.35;;;5.30;99.90;;;;;;4993302;28;20261;-81
2023/01/25 11:56:06;;;;;;;16.60;14.52;;;5.30;99.90;;;;;;5004808;28;20177;-80
2023/01/25 11:59:01;;;;;;;24.70;13.02;;;5.30;99.90;;;;;;5036614;28;20907;-82
2023/01/25 12:01:36;;;;;;;17.13;12.90;;;5.30;99.90;;;;;;5042596;28;20266;-79
2023/01/25 12:04:10;;;;;;;21.02;15.10;;;5.20;99.90;;;;;;5039340;28;20227;-80
2023/01/25 12:06:57;;;;;;;20.55;14.18;;;5.20;99.90;;;;;;5046423;28;20172;-79
2023/01/25 12:09:35;;;;;;;20.77;14.38;;;5.20;99.90;;;;;;5023824;28;20208;-79
2023/01/25 12:12:07;;;;;;;18.50;14.38;;;5.20;99.90;;;;;;5012017;28;20587;-80
2023/01/25 12:14:45;;;;;;;22.20;14.43;;;5.20;99.90;;;;;;5040334;28;20189;-79
2023/01/25 12:17:37;;;;;;;20.52;14.15;;;5.20;99.90;;;;;;5029977;28;20192;-80
2023/01/25 12:20:03;;;;;;;19.15;14.32;;;5.20;99.90;;;;;;4986994;28;20565;-82
2023/01/25 12:22:44;;;;;;;20.40;15.67;;;5.20;99.90;;;;;;5050336;28;20177;-81
2023/01/25 12:25:43;;;;;;;23.77;17.48;;;5.20;99.90;;;;;;5034031;28;20256;-82
2023/01/25 12:28:21;;;;;;;18.40;13.52;;;5.20;99.90;;;;;;5050624;28;20181;-80
2023/01/25 12:30:58;;;;;;;15.65;12.90;;;5.10;99.90;;;;;;5033684;28;20203;-81
2023/01/25 12:33:37;;;;;;;18.48;14.77;;;5.00;99.90;;;;;;5053980;28;20168;-79
2023/01/25 12:36:10;;;;;;;17.20;13.35;;;5.00;99.90;;;;;;5051999;28;20172;-81
2023/01/25 12:38:42;;;;;;;19.42;13.80;;;5.00;99.90;;;;;;5028183;28;20177;-80
2023/01/25 12:41:17;;;;;;;16.95;13.73;;;5.00;99.90;;;;;;5030926;28;20745;-78
2023/01/25 12:44:05;;;;;;;20.80;14.35;;;5.10;99.90;;;;;;5031431;28;20201;-79
2023/01/25 12:46:49;;;;;;;19.52;13.95;;;5.10;99.90;;;;;;5030999;28;20192;-80
2023/01/25 12:49:30;;;;;;;19.75;14.27;;;5.10;99.90;;;;;;5021520;28;20209;-80
2023/01/25 12:52:00;;;;;;;18.30;14.13;;;5.10;99.90;;;;;;4993630;28;20631;-81
2023/01/25 12:54:34;;;;;;;22.73;15.80;;;5.10;99.90;;;;;;4993838;28;20175;-81
2023/01/25 12:57:13;;;;;;;25.50;16.05;;;5.10;99.90;;;;;;5010307;28;20178;-82
2023/01/25 12:59:49;;;;;;;21.58;16.77;;;5.10;99.90;;;;;;5010017;28;20552;-81
2023/01/25 13:02:27;;;;;;;22.08;16.17;;;5.10;99.90;;;;;;5011056;28;20178;-82
2023/01/25 13:05:01;;;;;;;23.50;16.90;;;5.10;99.90;;;;;;5010443;28;20209;-81
2023/01/25 13:07:40;;;;;;;24.13;17.58;;;5.10;99.90;;;;;;4993698;28;20173;-81
2023/01/25 13:10:32;;;;;;;17.80;14.52;;;5.10;99.90;;;;;;4995547;28;20622;-82